Time;durP1;ratioP1;P1;durP2;ratioP2;P2;SDS_P1;SDS_P2;PMS_P1;PMS_P2;Temp;Humidity;BMP_temperature;BMP_pressure;BME280_temperature;BME280_humidity;BME280_pressure;Samples;Min_cycle;Max_cycle;Signal;HPM_P1;HPM_P2
2022/12/10 00:02:19;;;;;;;26.95;5.95;;;;;;;;;;4937194;28;20054;-69
2022/12/10 00:04:45;;;;;;;23.65;5.18;;;;;;;;;;4944191;28;20225;-68
2022/12/10 00:07:12;;;;;;;30.85;6.13;;;;;;;;;;4937530;28;20039;-69
2022/12/10 00:09:39;;;;;;;24.48;6.22;;;;;;;;;;4943603;28;20701;-68
2022/12/10 00:12:05;;;;;;;23.67;5.88;;;;;;;;;;4939509;28;20058;-68
2022/12/10 00:14:31;;;;;;;28.30;5.15;;;;;;;;;;4953617;28;20038;-68
2022/12/10 00:16:57;;;;;;;24.80;5.20;;;;;;;;;;4942561;28;20022;-68
2022/12/10 00:19:23;;;;;;;18.52;5.32;;;;;;;;;;4936254;28;20415;-69
2022/12/10 00:21:49;;;;;;;20.60;4.93;;;;;;;;;;4944056;28;20625;-68
2022/12/10 00:24:16;;;;;;;23.40;7.13;;;;;;;;;;4938968;28;20038;-69
2022/12/10 00:26:42;;;;;;;23.85;5.95;;;;;;;;;;4943427;28;20469;-69
2022/12/10 00:29:10;;;;;;;26.83;7.57;;;;;;;;;;4935456;28;20031;-68
2022/12/10 00:31:37;;;;;;;22.80;5.50;;;;;;;;;;4941994;28;20026;-68
2022/12/10 00:34:04;;;;;;;27.02;7.43;;;;;;;;;;4938557;28;20030;-68
2022/12/10 00:36:42;;;;;;;22.20;7.47;;;;;;;;;;4947695;28;20069;-68
2022/12/10 00:39:09;;;;;;;21.25;6.95;;;;;;;;;;4939320;28;20113;-68
2022/12/10 00:41:35;;;;;;;21.27;6.70;;;;;;;;;;4943155;28;20477;-67
2022/12/10 00:44:01;;;;;;;23.13;8.25;;;;;;;;;;4917747;28;20401;-67
2022/12/10 00:46:30;;;;;;;23.67;6.20;;;;;;;;;;4946652;28;20274;-68
2022/12/10 00:48:56;;;;;;;22.38;5.72;;;;;;;;;;4948583;28;20023;-67
2022/12/10 00:51:22;;;;;;;;;;;;;;;;;;4949179;28;20042;-68
2022/12/10 00:53:49;;;;;;;20.75;6.18;;;;;;;;;;4951892;28;19918;-67
2022/12/10 00:56:16;;;;;;;17.40;6.03;;;;;;;;;;4948104;28;20038;-67
2022/12/10 00:58:42;;;;;;;21.65;6.47;;;;;;;;;;4950122;28;20037;-68
2022/12/10 01:01:10;;;;;;;20.63;6.05;;;;;;;;;;4944551;28;20125;-68
2022/12/10 01:03:36;;;;;;;19.15;5.57;;;;;;;;;;4957242;28;20466;-68
2022/12/10 01:06:13;;;;;;;20.02;5.47;;;;;;;;;;4946299;28;20041;-67
2022/12/10 01:08:40;;;;;;;18.27;4.88;;;;;;;;;;4964292;28;20121;-68
2022/12/10 01:11:06;;;;;;;21.10;5.85;;;;;;;;;;4950281;28;20034;-68
2022/12/10 01:13:32;;;;;;;25.95;5.90;;;;;;;;;;4949736;28;20089;-68
2022/12/10 01:16:01;;;;;;;20.58;5.47;;;;;;;;;;4954681;28;20117;-68
2022/12/10 01:18:27;;;;;;;21.88;5.25;;;;;;;;;;4952972;28;20065;-68
2022/12/10 01:20:54;;;;;;;17.33;5.60;;;;;;;;;;4904809;28;20326;-67
2022/12/10 01:23:23;;;;;;;20.33;5.32;;;;;;;;;;4921473;28;20053;-69
2022/12/10 01:25:49;;;;;;;19.83;4.90;;;;;;;;;;4909627;28;20042;-68
2022/12/10 01:28:15;;;;;;;14.18;4.55;;;;;;;;;;4899359;28;20030;-68
2022/12/10 01:30:41;;;;;;;16.17;4.97;;;;;;;;;;4903087;28;20731;-69
2022/12/10 01:33:08;;;;;;;17.67;5.28;;;;;;;;;;4899688;28;20315;-69
2022/12/10 01:35:36;;;;;;;15.73;4.72;;;;;;;;;;4902009;28;20042;-69
2022/12/10 01:38:02;;;;;;;18.55;4.88;;;;;;;;;;4902970;28;20046;-67
2022/12/10 01:40:28;;;;;;;16.52;5.00;;;;;;;;;;4904434;28;20046;-67
2022/12/10 01:42:55;;;;;;;14.98;4.53;;;;;;;;;;4903165;28;20038;-67
2022/12/10 01:45:21;;;;;;;18.98;5.00;;;;;;;;;;4900092;28;21933;-67
2022/12/10 01:47:47;;;;;;;16.88;4.22;;;;;;;;;;4901541;28;20026;-67
2022/12/10 01:50:14;;;;;;;21.13;4.65;;;;;;;;;;4900007;28;20162;-66
2022/12/10 01:52:40;;;;;;;22.52;5.03;;;;;;;;;;4906074;28;20023;-66
2022/12/10 01:55:08;;;;;;;16.98;4.63;;;;;;;;;;4902697;28;20030;-67
2022/12/10 01:57:34;;;;;;;16.20;4.32;;;;;;;;;;4935734;28;20465;-69
2022/12/10 02:00:02;;;;;;;21.30;4.72;;;;;;;;;;4951942;28;20040;-68
2022/12/10 02:02:42;;;;;;;14.98;4.25;;;;;;;;;;4951038;28;20492;-68
2022/12/10 02:05:20;;;;;;;20.50;4.30;;;;;;;;;;4947393;28;20031;-68
2022/12/10 02:07:46;;;;;;;15.93;3.97;;;;;;;;;;4953034;28;20041;-69
2022/12/10 02:10:31;;;;;;;16.77;5.38;;;;;;;;;;4951969;28;20856;-68
2022/12/10 02:13:09;;;;;;;18.27;4.63;;;;;;;;;;4951522;28;20456;-68
2022/12/10 02:15:39;;;;;;;17.38;4.35;;;;;;;;;;4949522;28;20400;-68
2022/12/10 02:18:19;;;;;;;19.10;4.07;;;;;;;;;;4948912;28;20262;-68
2022/12/10 02:20:47;;;;;;;17.83;4.00;;;;;;;;;;4960414;28;20152;-68
2022/12/10 02:23:15;;;;;;;17.52;3.97;;;;;;;;;;4944281;28;20043;-68
2022/12/10 02:26:00;;;;;;;17.55;4.10;;;;;;;;;;4951006;28;20053;-68
2022/12/10 02:28:34;;;;;;;17.27;3.80;;;;;;;;;;4948210;28;20424;-68
2022/12/10 02:31:01;;;;;;;17.77;4.10;;;;;;;;;;4960791;28;20026;-68
2022/12/10 02:33:28;;;;;;;19.30;4.28;;;;;;;;;;4948865;28;20556;-68
2022/12/10 02:35:54;;;;;;;17.88;4.28;;;;;;;;;;4950119;28;20560;-68
2022/12/10 02:38:34;;;;;;;18.10;4.07;;;;;;;;;;4949156;28;20092;-68
2022/12/10 02:41:10;;;;;;;16.58;3.92;;;;;;;;;;4948066;28;20034;-69
2022/12/10 02:43:36;;;;;;;17.98;4.13;;;;;;;;;;4952784;28;20210;-68
2022/12/10 02:46:04;;;;;;;17.23;4.35;;;;;;;;;;4946517;28;20027;-69
2022/12/10 02:48:31;;;;;;;16.45;4.15;;;;;;;;;;4945344;28;20330;-68
2022/12/10 02:50:57;;;;;;;14.50;3.70;;;;;;;;;;4951510;28;20030;-68
2022/12/10 02:53:24;;;;;;;17.25;4.43;;;;;;;;;;4956963;28;20056;-68
2022/12/10 02:55:50;;;;;;;18.13;4.00;;;;;;;;;;4953770;28;20457;-68
2022/12/10 02:58:16;;;;;;;19.75;4.38;;;;;;;;;;4947053;28;20137;-68
2022/12/10 03:00:48;;;;;;;14.68;4.80;;;;;;;;;;4948681;28;20070;-68
2022/12/10 03:03:28;;;;;;;19.75;5.60;;;;;;;;;;4941013;28;20034;-70
2022/12/10 03:06:07;;;;;;;18.98;5.63;;;;;;;;;;4949005;28;20062;-68
2022/12/10 03:08:36;;;;;;;14.88;4.32;;;;;;;;;;4951647;28;20086;-68
2022/12/10 03:11:14;;;;;;;18.50;4.25;;;;;;;;;;4948743;28;20448;-71
2022/12/10 03:13:43;;;;;;;19.35;3.78;;;;;;;;;;4951135;28;20023;-68
2022/12/10 03:16:10;;;;;;;16.98;3.10;;;;;;;;;;4944521;28;20030;-68
2022/12/10 03:18:37;;;;;;;20.58;3.10;;;;;;;;;;4945179;28;20031;-69
2022/12/10 03:21:05;;;;;;;12.10;2.80;;;;;;;;;;4943611;28;20035;-69
2022/12/10 03:23:33;;;;;;;13.80;2.63;;;;;;;;;;4950359;28;20027;-69
2022/12/10 03:26:00;;;;;;;12.13;2.17;;;;;;;;;;4947706;28;20042;-69
2022/12/10 03:28:26;;;;;;;12.88;2.13;;;;;;;;;;4947202;28;20034;-68
2022/12/10 03:30:53;;;;;;;17.85;2.72;;;;;;;;;;4949656;28;20474;-68
2022/12/10 03:33:20;;;;;;;11.88;2.72;;;;;;;;;;4953827;28;20129;-68
2022/12/10 03:35:47;;;;;;;11.00;2.60;;;;;;;;;;4951488;28;20031;-68
2022/12/10 03:38:14;;;;;;;14.35;2.50;;;;;;;;;;4952340;28;20493;-69
2022/12/10 03:40:40;;;;;;;14.48;2.92;;;;;;;;;;4953580;28;20027;-67
2022/12/10 03:43:06;;;;;;;11.40;2.42;;;;;;;;;;4952977;28;20045;-67
2022/12/10 03:45:32;;;;;;;12.70;2.47;;;;;;;;;;4952879;28;20120;-66
2022/12/10 03:47:58;;;;;;;11.10;2.20;;;;;;;;;;4953531;28;20057;-66
2022/12/10 03:50:25;;;;;;;12.32;2.20;;;;;;;;;;4947182;28;20254;-66
2022/12/10 03:52:51;;;;;;;7.85;1.60;;;;;;;;;;4947779;28;20552;-66
2022/12/10 03:55:17;;;;;;;9.55;1.95;;;;;;;;;;4950350;28;20053;-66
2022/12/10 03:57:43;;;;;;;10.50;1.90;;;;;;;;;;4948521;28;20070;-66
2022/12/10 04:00:10;;;;;;;9.30;1.58;;;;;;;;;;4944386;28;20441;-66
2022/12/10 04:02:36;;;;;;;11.55;1.55;;;;;;;;;;4956733;28;20038;-68
2022/12/10 04:05:02;;;;;;;10.52;1.98;;;;;;;;;;4951143;28;20118;-67
2022/12/10 04:07:28;;;;;;;6.38;1.38;;;;;;;;;;4949023;28;20158;-68
2022/12/10 04:09:54;;;;;;;8.68;1.90;;;;;;;;;;4951192;28;20042;-66
2022/12/10 04:12:20;;;;;;;8.02;1.75;;;;;;;;;;4950582;28;20597;-68
2022/12/10 04:17:34;;;;;;;9.18;1.30;;;;;;;;;;4950992;28;20133;-68
2022/12/10 04:20:01;;;;;;;5.53;1.17;;;;;;;;;;4952183;28;20037;-68
2022/12/10 04:27:57;;;;;;;3.72;0.90;;;;;;;;;;4948863;28;20186;-66
2022/12/10 04:30:23;;;;;;;6.13;0.90;;;;;;;;;;4945499;28;20043;-66
2022/12/10 04:32:49;;;;;;;6.30;0.98;;;;;;;;;;4956106;28;20031;-67
2022/12/10 04:35:15;;;;;;;9.45;1.20;;;;;;;;;;4944536;28;20170;-66
2022/12/10 04:37:41;;;;;;;5.35;0.95;;;;;;;;;;4952058;28;20192;-66
2022/12/10 04:40:08;;;;;;;8.00;1.55;;;;;;;;;;4945494;28;20180;-67
2022/12/10 04:42:34;;;;;;;;;;;;;;;;;;4954900;28;20043;-66
2022/12/10 04:45:00;;;;;;;8.85;1.00;;;;;;;;;;4950960;28;19920;-66
2022/12/10 04:47:26;;;;;;;5.50;1.08;;;;;;;;;;4948337;28;20026;-66
2022/12/10 04:49:52;;;;;;;9.30;1.30;;;;;;;;;;4955272;28;20482;-66
2022/12/10 04:52:18;;;;;;;4.50;0.95;;;;;;;;;;4945514;28;20031;-67
2022/12/10 04:54:44;;;;;;;8.48;1.20;;;;;;;;;;4952678;28;20027;-67
2022/12/10 04:57:11;;;;;;;6.53;1.25;;;;;;;;;;4949133;28;20482;-67
2022/12/10 04:59:37;;;;;;;8.50;1.00;;;;;;;;;;4950812;28;20049;-67
2022/12/10 05:02:04;;;;;;;8.70;1.10;;;;;;;;;;4946780;28;20405;-67
2022/12/10 05:04:30;;;;;;;6.13;1.20;;;;;;;;;;4953083;28;20041;-67
2022/12/10 05:06:56;;;;;;;6.00;0.98;;;;;;;;;;4947731;28;20446;-67
2022/12/10 05:09:22;;;;;;;5.85;1.25;;;;;;;;;;4948834;28;20083;-67
2022/12/10 05:11:48;;;;;;;;;;;;;;;;;;4951735;28;20153;-67
2022/12/10 05:14:15;;;;;;;5.82;1.00;;;;;;;;;;4961963;28;19914;-67
2022/12/10 05:16:42;;;;;;;7.93;1.00;;;;;;;;;;4950849;28;20065;-67
2022/12/10 05:19:09;;;;;;;6.28;1.20;;;;;;;;;;4948859;28;20041;-67
2022/12/10 05:24:37;;;;;;;6.70;1.08;;;;;;;;;;4901802;29;20052;-67
2022/12/10 05:27:03;;;;;;;8.50;1.27;;;;;;;;;;4903658;29;20388;-67
2022/12/10 05:29:29;;;;;;;8.23;1.52;;;;;;;;;;4908418;29;20082;-67
2022/12/10 05:31:55;;;;;;;7.10;1.10;;;;;;;;;;4891119;29;20110;-68
2022/12/10 05:34:21;;;;;;;5.55;1.00;;;;;;;;;;4899991;29;22052;-67
2022/12/10 05:36:47;;;;;;;8.10;1.33;;;;;;;;;;4892131;29;20447;-68
2022/12/10 05:39:13;;;;;;;5.65;1.00;;;;;;;;;;4902859;29;20048;-68
2022/12/10 05:41:40;;;;;;;5.20;1.00;;;;;;;;;;4874987;29;20326;-68
2022/12/10 05:44:07;;;;;;;8.02;1.23;;;;;;;;;;4884476;29;20584;-68
2022/12/10 05:46:34;;;;;;;6.50;1.27;;;;;;;;;;4905844;29;20054;-67
2022/12/10 05:49:01;;;;;;;5.20;1.10;;;;;;;;;;4903683;29;20063;-67
2022/12/10 05:51:28;;;;;;;7.47;1.40;;;;;;;;;;4906642;29;20071;-68
2022/12/10 05:53:55;;;;;;;6.03;1.20;;;;;;;;;;4902374;29;20028;-67
2022/12/10 05:56:23;;;;;;;8.50;1.42;;;;;;;;;;4903744;29;21139;-68
2022/12/10 05:58:50;;;;;;;7.00;1.30;;;;;;;;;;4922293;28;20039;-68
2022/12/10 06:01:22;;;;;;;10.70;1.88;;;;;;;;;;4945190;28;20070;-68
2022/12/10 06:03:49;;;;;;;6.20;1.27;;;;;;;;;;4949433;28;20037;-67
2022/12/10 06:06:20;;;;;;;7.07;1.15;;;;;;;;;;4949516;28;20045;-68
2022/12/10 06:08:46;;;;;;;6.35;1.20;;;;;;;;;;4951224;28;20125;-68
2022/12/10 06:11:12;;;;;;;7.30;1.50;;;;;;;;;;4947116;28;20041;-67
2022/12/10 06:13:38;;;;;;;9.48;1.50;;;;;;;;;;4949332;28;20034;-67
2022/12/10 06:16:09;;;;;;;6.47;1.42;;;;;;;;;;4948244;28;20035;-68
2022/12/10 06:18:36;;;;;;;9.13;1.52;;;;;;;;;;4949601;28;20026;-67
2022/12/10 06:21:09;;;;;;;5.07;1.20;;;;;;;;;;4943670;28;20039;-67
2022/12/10 06:23:36;;;;;;;6.72;1.38;;;;;;;;;;4950681;28;20033;-66
2022/12/10 06:26:06;;;;;;;7.80;1.42;;;;;;;;;;4944132;28;20034;-66
2022/12/10 06:28:32;;;;;;;6.57;1.35;;;;;;;;;;4949106;28;20027;-65
2022/12/10 06:30:59;;;;;;;7.85;1.35;;;;;;;;;;4951177;28;20034;-66
2022/12/10 06:33:25;;;;;;;4.85;1.08;;;;;;;;;;4945303;28;20343;-68
2022/12/10 06:35:51;;;;;;;7.10;1.60;;;;;;;;;;4948847;28;20117;-66
2022/12/10 06:38:17;;;;;;;6.28;1.20;;;;;;;;;;4942931;28;20117;-66
2022/12/10 06:40:44;;;;;;;6.78;1.33;;;;;;;;;;4948988;28;20044;-68
2022/12/10 06:43:10;;;;;;;;;;;;;;;;;;4944527;28;20031;-68
2022/12/10 06:45:40;;;;;;;3.78;0.90;;;;;;;;;;4947011;28;20478;-68
2022/12/10 06:48:06;;;;;;;7.53;1.60;;;;;;;;;;4940425;28;20042;-66
2022/12/10 06:50:32;;;;;;;6.78;1.20;;;;;;;;;;4946095;28;20117;-66
2022/12/10 06:52:58;;;;;;;7.15;1.20;;;;;;;;;;4943633;28;20031;-66
2022/12/10 06:55:24;;;;;;;5.70;1.20;;;;;;;;;;4947305;28;20326;-66
2022/12/10 06:57:54;;;;;;;5.35;1.13;;;;;;;;;;4946060;28;20073;-66
2022/12/10 07:00:21;;;;;;;5.25;1.00;;;;;;;;;;4943450;28;20038;-67
2022/12/10 07:02:47;;;;;;;2.97;0.88;;;;;;;;;;4948847;28;20371;-68
2022/12/10 07:05:13;;;;;;;5.05;0.95;;;;;;;;;;4946415;28;20121;-66
2022/12/10 07:07:39;;;;;;;5.47;1.10;;;;;;;;;;4951495;28;20047;-66
2022/12/10 07:10:05;;;;;;;6.32;1.10;;;;;;;;;;4945109;28;20097;-68
2022/12/10 07:12:31;;;;;;;;;;;;;;;;;;4951959;28;20022;-66
2022/12/10 07:14:57;;;;;;;7.47;2.30;;;;;;;;;;4950897;28;20454;-68
2022/12/10 07:17:23;;;;;;;6.97;2.30;;;;;;;;;;4945211;28;20092;-66
2022/12/10 07:19:49;;;;;;;5.90;1.63;;;;;;;;;;4949845;28;20031;-66
2022/12/10 07:22:16;;;;;;;6.82;1.90;;;;;;;;;;4947706;28;21690;-69
2022/12/10 07:24:42;;;;;;;7.63;1.75;;;;;;;;;;4954942;28;20034;-67
2022/12/10 07:27:08;;;;;;;6.97;1.83;;;;;;;;;;4950180;28;20358;-69
2022/12/10 07:29:34;;;;;;;;;;;;;;;;;;4954109;28;20023;-67
2022/12/10 07:32:00;;;;;;;8.27;1.80;;;;;;;;;;4951450;28;20705;-67
2022/12/10 07:34:26;;;;;;;7.25;1.40;;;;;;;;;;4942467;28;20153;-67
2022/12/10 07:36:53;;;;;;;7.30;1.70;;;;;;;;;;4949487;28;20035;-67
2022/12/10 07:39:19;;;;;;;;;;;;;;;;;;4952871;28;20461;-67
2022/12/10 07:41:47;;;;;;;8.90;2.20;;;;;;;;;;4954406;28;19921;-67
2022/12/10 07:44:14;;;;;;;7.20;1.75;;;;;;;;;;4960558;28;20141;-68
2022/12/10 07:46:43;;;;;;;10.90;2.50;;;;;;;;;;4950766;28;20488;-68
2022/12/10 07:49:09;;;;;;;8.27;2.70;;;;;;;;;;4945932;28;20030;-67
2022/12/10 07:51:35;;;;;;;;;;;;;;;;;;4948837;28;20027;-68
2022/12/10 07:54:01;;;;;;;7.80;2.30;;;;;;;;;;4953867;28;20632;-68
2022/12/10 07:56:28;;;;;;;10.57;2.92;;;;;;;;;;4956033;28;20133;-68
2022/12/10 07:58:54;;;;;;;11.15;2.53;;;;;;;;;;4939973;28;20574;-69
2022/12/10 08:01:22;;;;;;;10.68;2.45;;;;;;;;;;4941050;28;20051;-68
2022/12/10 08:03:48;;;;;;;9.93;2.95;;;;;;;;;;4946578;28;20062;-67
2022/12/10 08:06:19;;;;;;;8.43;2.30;;;;;;;;;;4945784;28;20035;-67
2022/12/10 08:08:45;;;;;;;9.65;2.17;;;;;;;;;;4951804;28;20058;-68
2022/12/10 08:11:11;;;;;;;9.95;2.42;;;;;;;;;;4945480;28;20026;-68
2022/12/10 08:13:38;;;;;;;8.80;1.73;;;;;;;;;;4954469;28;20585;-67
2022/12/10 08:16:04;;;;;;;;;;;;;;;;;;4950707;28;20440;-67
2022/12/10 08:18:30;;;;;;;10.18;2.17;;;;;;;;;;4949987;28;19948;-67
2022/12/10 08:20:57;;;;;;;11.30;2.08;;;;;;;;;;4953897;28;20549;-67
2022/12/10 08:23:23;;;;;;;10.05;2.05;;;;;;;;;;4948699;28;20571;-67
2022/12/10 08:25:49;;;;;;;7.20;1.90;;;;;;;;;;4945823;28;20400;-67
2022/12/10 08:28:16;;;;;;;9.27;2.00;;;;;;;;;;4948663;28;20490;-67
2022/12/10 08:30:49;;;;;;;11.00;2.58;;;;;;;;;;4946765;28;20576;-68
2022/12/10 08:33:15;;;;;;;9.13;2.38;;;;;;;;;;4947015;28;20031;-67
2022/12/10 08:35:41;;;;;;;7.75;2.10;;;;;;;;;;4949880;28;20130;-67
2022/12/10 08:38:07;;;;;;;7.70;2.03;;;;;;;;;;4955224;28;20287;-68
2022/12/10 08:40:33;;;;;;;8.45;1.98;;;;;;;;;;4956152;28;20042;-69
2022/12/10 08:43:00;;;;;;;12.60;2.50;;;;;;;;;;4955274;28;20114;-68
2022/12/10 08:45:26;;;;;;;11.50;2.08;;;;;;;;;;4951413;28;20415;-67
2022/12/10 08:47:52;;;;;;;11.55;2.20;;;;;;;;;;4952894;28;20177;-66
2022/12/10 08:50:18;;;;;;;9.80;1.98;;;;;;;;;;4949305;28;20041;-66
2022/12/10 08:52:44;;;;;;;13.85;2.15;;;;;;;;;;4950548;28;20605;-67
2022/12/10 08:55:10;;;;;;;;;;;;;;;;;;4951214;28;20177;-66
2022/12/10 08:57:37;;;;;;;10.68;2.05;;;;;;;;;;4956116;28;20197;-67
2022/12/10 09:00:04;;;;;;;11.27;4.05;;;;;;;;;;4942406;28;20174;-67
2022/12/10 09:02:30;;;;;;;18.50;3.15;;;;;;;;;;4946487;28;20051;-67
2022/12/10 09:04:56;;;;;;;13.57;2.30;;;;;;;;;;4948629;28;20437;-67
2022/12/10 09:07:22;;;;;;;12.05;2.80;;;;;;;;;;4945036;28;20651;-67
2022/12/10 09:09:48;;;;;;;8.60;2.22;;;;;;;;;;4948132;28;20027;-67
2022/12/10 09:12:14;;;;;;;9.30;1.92;;;;;;;;;;4946195;28;20035;-66
2022/12/10 09:14:41;;;;;;;8.25;1.85;;;;;;;;;;4945085;28;20105;-67
2022/12/10 09:17:07;;;;;;;11.55;2.10;;;;;;;;;;4943173;28;20527;-67
2022/12/10 09:19:34;;;;;;;8.95;2.05;;;;;;;;;;4945227;28;20038;-66
2022/12/10 09:22:01;;;;;;;10.02;2.28;;;;;;;;;;4948920;28;20030;-67
2022/12/10 09:24:27;;;;;;;7.97;1.77;;;;;;;;;;4944211;28;20066;-67
2022/12/10 09:26:53;;;;;;;7.97;1.83;;;;;;;;;;4953474;28;20035;-65
2022/12/10 09:29:19;;;;;;;;;;;;;;;;;;4946922;28;20094;-65
2022/12/10 09:31:45;;;;;;;11.73;2.28;;;;;;;;;;4950649;28;20388;-65
2022/12/10 09:34:12;;;;;;;9.85;2.42;;;;;;;;;;4946412;28;20038;-66
2022/12/10 09:36:38;;;;;;;8.15;1.88;;;;;;;;;;4952028;28;20026;-67
2022/12/10 09:39:04;;;;;;;8.55;1.67;;;;;;;;;;4944081;28;20105;-66
2022/12/10 09:41:33;;;;;;;8.25;1.73;;;;;;;;;;4949054;28;20650;-66
2022/12/10 09:44:02;;;;;;;7.28;1.85;;;;;;;;;;4944213;28;20042;-67
2022/12/10 09:46:47;;;;;;;10.60;2.10;;;;;;;;;;4949682;28;20038;-66
2022/12/10 09:49:32;;;;;;;10.27;2.25;;;;;;;;;;4943209;28;20046;-66
2022/12/10 09:52:00;;;;;;;9.35;1.98;;;;;;;;;;4943561;28;20330;-66
2022/12/10 09:54:31;;;;;;;12.20;2.28;;;;;;;;;;4944828;28;20037;-67
2022/12/10 09:56:58;;;;;;;16.85;2.50;;;;;;;;;;4945367;28;20034;-66
2022/12/10 09:59:33;;;;;;;41.45;3.90;;;;;;;;;;4942081;28;20489;-67
2022/12/10 10:02:20;;;;;;;15.88;3.15;;;;;;;;;;4946755;28;20547;-67
2022/12/10 10:04:47;;;;;;;31.02;3.90;;;;;;;;;;4940584;28;20425;-67
2022/12/10 10:07:24;;;;;;;31.63;4.10;;;;;;;;;;4946289;28;20393;-67
2022/12/10 10:09:50;;;;;;;;;;;;;;;;;;4945984;28;20034;-66
2022/12/10 10:12:16;;;;;;;18.48;3.50;;;;;;;;;;4941992;28;20664;-67
2022/12/10 10:14:42;;;;;;;;;;;;;;;;;;4946508;28;20209;-66
2022/12/10 10:17:14;;;;;;;13.38;3.28;;;;;;;;;;4941376;28;19918;-67
2022/12/10 10:19:41;;;;;;;13.80;2.75;;;;;;;;;;4942146;28;20481;-66
2022/12/10 10:22:08;;;;;;;13.80;3.03;;;;;;;;;;4945137;28;20162;-67
2022/12/10 10:24:36;;;;;;;13.00;2.88;;;;;;;;;;4944573;28;20396;-66
2022/12/10 10:27:22;;;;;;;11.98;2.75;;;;;;;;;;4942357;28;20039;-67
2022/12/10 10:29:50;;;;;;;11.50;2.50;;;;;;;;;;4945944;28;20030;-66
2022/12/10 10:32:16;;;;;;;12.13;2.63;;;;;;;;;;4941513;28;20490;-65
2022/12/10 10:34:42;;;;;;;;;;;;;;;;;;4943714;28;20030;-65
2022/12/10 10:37:15;;;;;;;12.15;2.50;;;;;;;;;;4939636;28;20041;-68
2022/12/10 10:39:46;;;;;;;11.55;2.55;;;;;;;;;;4952336;28;20568;-64
2022/12/10 10:42:22;;;;;;;10.82;2.20;;;;;;;;;;4947506;28;20134;-64
2022/12/10 10:44:48;;;;;;;12.25;2.83;;;;;;;;;;4949933;28;20030;-66
2022/12/10 10:47:14;;;;;;;;;;;;;;;;;;4947622;28;20035;-64
2022/12/10 10:49:44;;;;;;;11.93;2.55;;;;;;;;;;4965576;28;19914;-64
2022/12/10 10:52:15;;;;;;;17.55;3.20;;;;;;;;;;4943250;28;20461;-63
2022/12/10 10:54:43;;;;;;;11.65;2.35;;;;;;;;;;4949530;28;20031;-64
2022/12/10 10:57:27;;;;;;;16.90;3.13;;;;;;;;;;4950562;28;20049;-64
2022/12/10 10:59:55;;;;;;;16.35;3.50;;;;;;;;;;4952421;28;20133;-64
2022/12/10 11:02:30;;;;;;;14.02;2.70;;;;;;;;;;4942637;28;20351;-64
2022/12/10 11:05:00;;;;;;;12.63;2.60;;;;;;;;;;4947766;28;20042;-64
2022/12/10 11:07:35;;;;;;;19.05;3.67;;;;;;;;;;4953171;28;20034;-64
2022/12/10 11:10:02;;;;;;;18.73;3.10;;;;;;;;;;4953428;28;20526;-64
2022/12/10 11:12:39;;;;;;;18.52;4.20;;;;;;;;;;4948021;28;20031;-64
2022/12/10 11:15:05;;;;;;;;;;;;;;;;;;4953447;28;20026;-64
2022/12/10 11:17:31;;;;;;;16.35;4.22;;;;;;;;;;4951416;28;19913;-64
2022/12/10 11:19:57;;;;;;;;;;;;;;;;;;4948152;28;20622;-64
2022/12/10 11:22:28;;;;;;;15.95;5.03;;;;;;;;;;4945663;28;19918;-64
2022/12/10 11:24:54;;;;;;;23.40;5.03;;;;;;;;;;4948736;28;20141;-64
2022/12/10 11:27:20;;;;;;;;;;;;;;;;;;4942166;28;20585;-63
2022/12/10 11:29:58;;;;;;;13.55;4.30;;;;;;;;;;4964590;28;19945;-65
2022/12/10 11:32:31;;;;;;;17.58;5.60;;;;;;;;;;4942641;28;20492;-65
2022/12/10 11:34:59;;;;;;;18.58;6.97;;;;;;;;;;4946730;28;20035;-64
2022/12/10 11:37:56;;;;;;;21.77;6.53;;;;;;;;;;4948263;28;20035;-65
2022/12/10 11:40:22;;;;;;;16.17;5.60;;;;;;;;;;4939622;28;20051;-64
2022/12/10 11:42:48;;;;;;;;;;;;;;;;;;4948954;28;20447;-64
2022/12/10 11:45:32;;;;;;;16.63;6.18;;;;;;;;;;4946729;28;20005;-64
2022/12/10 11:48:03;;;;;;;14.57;4.70;;;;;;;;;;4948477;28;20232;-66
2022/12/10 11:50:50;;;;;;;14.07;3.90;;;;;;;;;;4947067;28;20594;-63
2022/12/10 11:53:25;;;;;;;14.32;3.83;;;;;;;;;;4944641;28;20412;-64
2022/12/10 11:55:52;;;;;;;15.32;3.95;;;;;;;;;;4946073;28;20038;-63
2022/12/10 11:58:24;;;;;;;14.20;4.03;;;;;;;;;;4947398;28;20038;-64
2022/12/10 12:00:59;;;;;;;13.88;3.63;;;;;;;;;;4948835;28;20508;-64
2022/12/10 12:03:43;;;;;;;12.63;3.05;;;;;;;;;;4943105;28;20065;-64
2022/12/10 12:06:09;;;;;;;13.77;3.00;;;;;;;;;;4944733;28;20042;-64
2022/12/10 12:08:53;;;;;;;13.18;3.45;;;;;;;;;;4948589;28;20046;-64
2022/12/10 12:11:23;;;;;;;11.85;3.05;;;;;;;;;;4943760;28;20023;-64
2022/12/10 12:13:55;;;;;;;11.50;3.10;;;;;;;;;;4946112;28;20280;-64
2022/12/10 12:16:28;;;;;;;12.63;3.60;;;;;;;;;;4942423;28;20466;-66
2022/12/10 12:18:56;;;;;;;16.73;3.85;;;;;;;;;;4942628;28;20587;-64
2022/12/10 12:21:22;;;;;;;14.20;3.20;;;;;;;;;;4940704;28;22444;-64
2022/12/10 12:23:57;;;;;;;14.23;4.05;;;;;;;;;;4950058;28;20461;-64
2022/12/10 12:26:29;;;;;;;12.68;3.72;;;;;;;;;;4944105;28;20706;-64
2022/12/10 12:29:01;;;;;;;16.52;3.35;;;;;;;;;;4946428;28;20034;-64
2022/12/10 12:31:51;;;;;;;14.05;2.95;;;;;;;;;;4946293;28;20087;-67
2022/12/10 12:34:23;;;;;;;13.35;3.38;;;;;;;;;;4938659;28;20524;-67
2022/12/10 12:36:49;;;;;;;13.40;3.38;;;;;;;;;;4943884;28;20035;-68
2022/12/10 12:39:30;;;;;;;14.60;3.35;;;;;;;;;;4943517;28;20101;-65
2022/12/10 12:42:15;;;;;;;11.20;2.70;;;;;;;;;;4946261;28;20027;-66
2022/12/10 12:44:41;;;;;;;11.10;3.58;;;;;;;;;;4955339;28;20460;-66
2022/12/10 12:47:26;;;;;;;17.25;4.18;;;;;;;;;;4942704;28;20050;-66
2022/12/10 12:49:53;;;;;;;14.48;4.47;;;;;;;;;;4945010;28;20062;-64
2022/12/10 12:52:38;;;;;;;11.35;3.50;;;;;;;;;;4942896;28;20083;-64
2022/12/10 12:55:07;;;;;;;13.38;3.92;;;;;;;;;;4939217;28;20548;-64
2022/12/10 12:57:36;;;;;;;15.02;3.88;;;;;;;;;;4945640;28;20035;-64
2022/12/10 13:00:23;;;;;;;12.98;4.72;;;;;;;;;;4943207;28;20053;-64
2022/12/10 13:03:00;;;;;;;14.02;5.13;;;;;;;;;;4946446;28;20039;-65
2022/12/10 13:05:29;;;;;;;14.23;3.72;;;;;;;;;;4943613;28;20061;-64
2022/12/10 13:08:19;;;;;;;13.02;3.80;;;;;;;;;;4946405;28;20030;-65
2022/12/10 13:10:45;;;;;;;11.98;4.20;;;;;;;;;;4938038;28;20118;-64
2022/12/10 13:13:24;;;;;;;14.88;4.22;;;;;;;;;;4942030;28;20069;-64
2022/12/10 13:15:50;;;;;;;17.17;4.43;;;;;;;;;;4943474;28;20330;-64
2022/12/10 13:18:20;;;;;;;15.93;4.10;;;;;;;;;;4940798;28;20113;-64
2022/12/10 13:20:48;;;;;;;12.52;3.35;;;;;;;;;;4947078;28;20039;-64
2022/12/10 13:23:26;;;;;;;17.33;4.38;;;;;;;;;;4942629;28;20650;-65
2022/12/10 13:25:55;;;;;;;14.15;4.03;;;;;;;;;;4949161;28;20582;-65
2022/12/10 13:28:27;;;;;;;13.10;4.50;;;;;;;;;;4942205;28;20332;-65
2022/12/10 13:31:12;;;;;;;12.85;4.13;;;;;;;;;;4945698;28;20279;-65
2022/12/10 13:33:52;;;;;;;15.52;4.47;;;;;;;;;;4946485;28;20027;-64
2022/12/10 13:36:26;;;;;;;13.32;4.40;;;;;;;;;;4939302;28;20027;-65
2022/12/10 13:39:15;;;;;;;11.55;3.88;;;;;;;;;;4945760;28;20053;-65
2022/12/10 13:44:48;;;;;;;16.60;4.05;;;;;;;;;;4943776;28;20092;-64
2022/12/10 13:47:43;;;;;;;14.32;4.10;;;;;;;;;;4943879;28;20034;-65
2022/12/10 13:50:19;;;;;;;12.70;3.63;;;;;;;;;;4938921;28;20082;-65
2022/12/10 13:52:48;;;;;;;14.95;4.43;;;;;;;;;;4945090;28;20030;-65
2022/12/10 13:55:32;;;;;;;13.45;4.57;;;;;;;;;;4940706;28;20197;-65
2022/12/10 13:58:34;;;;;;;11.88;4.35;;;;;;;;;;4948315;28;20033;-65
2022/12/10 14:01:06;;;;;;;13.30;4.28;;;;;;;;;;4905011;29;20123;-65
2022/12/10 14:03:44;;;;;;;14.73;5.55;;;;;;;;;;4921098;28;20043;-65
2022/12/10 14:06:22;;;;;;;19.20;8.18;;;;;;;;;;4917150;28;20497;-65
2022/12/10 14:08:56;;;;;;;39.00;30.33;;;;;;;;;;4912646;28;20217;-65
2022/12/10 14:11:25;;;;;;;19.63;9.05;;;;;;;;;;4890645;28;20038;-65
2022/12/10 14:14:01;;;;;;;16.25;5.70;;;;;;;;;;4898449;28;20062;-65
2022/12/10 14:16:30;;;;;;;15.97;3.97;;;;;;;;;;4895613;28;20649;-65
2022/12/10 14:19:07;;;;;;;15.32;4.80;;;;;;;;;;4916121;28;20690;-65
2022/12/10 14:21:34;;;;;;;14.23;4.40;;;;;;;;;;4912401;28;20146;-65
2022/12/10 14:24:00;;;;;;;11.98;3.78;;;;;;;;;;4912709;28;20561;-65
2022/12/10 14:26:27;;;;;;;;;;;;;;;;;;4911281;28;20215;-66
2022/12/10 14:29:00;;;;;;;31.80;21.80;;;;;;;;;;4914810;28;20013;-66
2022/12/10 14:31:30;;;;;;;14.35;5.63;;;;;;;;;;4903869;28;20055;-66
2022/12/10 14:33:59;;;;;;;16.55;6.88;;;;;;;;;;4898211;28;20031;-66
2022/12/10 14:36:28;;;;;;;12.93;5.15;;;;;;;;;;4939439;28;20061;-65
2022/12/10 14:38:54;;;;;;;15.85;5.38;;;;;;;;;;4938328;28;20458;-66
2022/12/10 14:41:20;;;;;;;;;;;;;;;;;;4939238;28;20026;-66
2022/12/10 14:43:46;;;;;;;12.93;4.18;;;;;;;;;;4940320;28;20450;-66
2022/12/10 14:46:22;;;;;;;20.92;8.75;;;;;;;;;;4931941;28;20042;-65
2022/12/10 14:48:49;;;;;;;21.95;11.40;;;;;;;;;;4939785;28;20030;-65
2022/12/10 14:51:20;;;;;;;16.40;6.03;;;;;;;;;;4938924;28;20138;-65
2022/12/10 14:53:47;;;;;;;20.73;9.85;;;;;;;;;;4942734;28;20035;-65
2022/12/10 14:56:17;;;;;;;19.73;8.35;;;;;;;;;;4935870;28;20114;-65
2022/12/10 14:58:46;;;;;;;11.70;4.00;;;;;;;;;;4954027;28;20049;-65
2022/12/10 15:01:36;;;;;;;15.90;4.45;;;;;;;;;;4949867;28;20401;-65
2022/12/10 15:04:04;;;;;;;17.30;6.95;;;;;;;;;;4942218;28;20031;-65
2022/12/10 15:06:34;;;;;;;17.80;5.50;;;;;;;;;;4937334;28;20476;-66
2022/12/10 15:09:00;;;;;;;15.02;5.88;;;;;;;;;;4941981;28;20026;-65